sensor_id;sensor_type;location;lat;lon;timestamp;P1;durP1;ratioP1;P2;durP2;ratioP2
7485;SDS011;3784;54.098;9.998;2023-04-15T00:00:26;10.93;;;8.63;;
7485;SDS011;3784;54.098;9.998;2023-04-15T00:02:56;8.80;;;7.90;;
7485;SDS011;3784;54.098;9.998;2023-04-15T00:05:34;9.33;;;7.67;;
7485;SDS011;3784;54.098;9.998;2023-04-15T00:08:09;10.40;;;8.47;;
7485;SDS011;3784;54.098;9.998;2023-04-15T00:10:39;11.70;;;9.17;;
7485;SDS011;3784;54.098;9.998;2023-04-15T00:13:14;10.97;;;9.53;;
7485;SDS011;3784;54.098;9.998;2023-04-15T00:15:55;11.73;;;10.20;;
7485;SDS011;3784;54.098;9.998;2023-04-15T00:18:22;10.90;;;9.43;;
7485;SDS011;3784;54.098;9.998;2023-04-15T00:20:57;11.83;;;8.87;;
7485;SDS011;3784;54.098;9.998;2023-04-15T00:23:29;11.33;;;9.80;;
7485;SDS011;3784;54.098;9.998;2023-04-15T00:26:06;11.80;;;9.93;;
7485;SDS011;3784;54.098;9.998;2023-04-15T00:28:39;12.70;;;10.00;;
7485;SDS011;3784;54.098;9.998;2023-04-15T00:31:16;12.23;;;10.13;;
7485;SDS011;3784;54.098;9.998;2023-04-15T00:33:44;12.17;;;9.57;;
7485;SDS011;3784;54.098;9.998;2023-04-15T00:36:13;11.63;;;9.53;;
7485;SDS011;3784;54.098;9.998;2023-04-15T00:38:42;12.10;;;9.87;;
7485;SDS011;3784;54.098;9.998;2023-04-15T00:41:11;12.93;;;10.20;;
7485;SDS011;3784;54.098;9.998;2023-04-15T00:43:47;13.70;;;10.67;;
7485;SDS011;3784;54.098;9.998;2023-04-15T00:46:19;14.13;;;10.70;;
7485;SDS011;3784;54.098;9.998;2023-04-15T00:48:50;13.23;;;10.83;;
7485;SDS011;3784;54.098;9.998;2023-04-15T00:51:31;10.63;;;9.13;;
7485;SDS011;3784;54.098;9.998;2023-04-15T00:54:04;12.47;;;10.60;;
7485;SDS011;3784;54.098;9.998;2023-04-15T00:56:35;12.27;;;10.23;;
7485;SDS011;3784;54.098;9.998;2023-04-15T00:59:09;13.53;;;9.90;;
7485;SDS011;3784;54.098;9.998;2023-04-15T01:01:42;15.43;;;11.00;;
7485;SDS011;3784;54.098;9.998;2023-04-15T01:04:14;14.77;;;10.60;;
7485;SDS011;3784;54.098;9.998;2023-04-15T01:06:53;10.97;;;9.23;;
7485;SDS011;3784;54.098;9.998;2023-04-15T01:09:27;12.50;;;10.20;;
7485;SDS011;3784;54.098;9.998;2023-04-15T01:12:11;13.03;;;10.47;;
7485;SDS011;3784;54.098;9.998;2023-04-15T01:14:46;14.80;;;11.10;;
7485;SDS011;3784;54.098;9.998;2023-04-15T01:17:21;15.17;;;12.00;;
7485;SDS011;3784;54.098;9.998;2023-04-15T01:19:50;16.47;;;11.23;;
7485;SDS011;3784;54.098;9.998;2023-04-15T01:22:18;18.60;;;12.67;;
7485;SDS011;3784;54.098;9.998;2023-04-15T01:24:50;15.83;;;11.07;;
7485;SDS011;3784;54.098;9.998;2023-04-15T01:27:26;14.83;;;11.77;;
7485;SDS011;3784;54.098;9.998;2023-04-15T01:29:54;18.47;;;12.50;;
7485;SDS011;3784;54.098;9.998;2023-04-15T01:32:27;14.60;;;10.87;;
7485;SDS011;3784;54.098;9.998;2023-04-15T01:35:02;14.97;;;11.87;;
7485;SDS011;3784;54.098;9.998;2023-04-15T01:37:34;15.00;;;10.90;;
7485;SDS011;3784;54.098;9.998;2023-04-15T01:40:12;16.07;;;12.07;;
7485;SDS011;3784;54.098;9.998;2023-04-15T01:42:42;17.40;;;12.20;;
7485;SDS011;3784;54.098;9.998;2023-04-15T01:45:14;18.47;;;12.20;;
7485;SDS011;3784;54.098;9.998;2023-04-15T01:47:48;16.70;;;12.67;;
7485;SDS011;3784;54.098;9.998;2023-04-15T01:50:17;19.27;;;13.60;;
7485;SDS011;3784;54.098;9.998;2023-04-15T01:52:46;23.93;;;14.13;;
7485;SDS011;3784;54.098;9.998;2023-04-15T01:55:16;24.37;;;14.70;;
7485;SDS011;3784;54.098;9.998;2023-04-15T01:57:50;25.70;;;13.80;;
7485;SDS011;3784;54.098;9.998;2023-04-15T02:00:43;21.33;;;13.23;;
7485;SDS011;3784;54.098;9.998;2023-04-15T02:03:13;27.60;;;15.17;;
7485;SDS011;3784;54.098;9.998;2023-04-15T02:05:41;28.50;;;16.30;;
7485;SDS011;3784;54.098;9.998;2023-04-15T02:08:10;35.83;;;18.67;;
7485;SDS011;3784;54.098;9.998;2023-04-15T02:10:40;29.77;;;14.73;;
7485;SDS011;3784;54.098;9.998;2023-04-15T02:13:10;42.30;;;19.80;;
7485;SDS011;3784;54.098;9.998;2023-04-15T02:15:51;41.33;;;18.47;;
7485;SDS011;3784;54.098;9.998;2023-04-15T02:18:22;44.83;;;19.40;;
7485;SDS011;3784;54.098;9.998;2023-04-15T02:20:53;48.00;;;20.03;;
7485;SDS011;3784;54.098;9.998;2023-04-15T02:23:25;43.63;;;19.97;;
7485;SDS011;3784;54.098;9.998;2023-04-15T02:25:54;53.30;;;21.70;;
7485;SDS011;3784;54.098;9.998;2023-04-15T02:28:24;46.00;;;20.77;;
7485;SDS011;3784;54.098;9.998;2023-04-15T02:30:56;51.67;;;22.67;;
7485;SDS011;3784;54.098;9.998;2023-04-15T02:33:33;60.03;;;23.07;;
7485;SDS011;3784;54.098;9.998;2023-04-15T02:36:01;63.10;;;24.50;;
7485;SDS011;3784;54.098;9.998;2023-04-15T02:38:29;58.10;;;23.87;;
7485;SDS011;3784;54.098;9.998;2023-04-15T02:41:02;53.03;;;22.30;;
7485;SDS011;3784;54.098;9.998;2023-04-15T02:43:47;64.37;;;24.80;;
7485;SDS011;3784;54.098;9.998;2023-04-15T02:46:25;73.03;;;27.47;;
7485;SDS011;3784;54.098;9.998;2023-04-15T02:49:01;70.07;;;23.23;;
7485;SDS011;3784;54.098;9.998;2023-04-15T02:51:38;68.60;;;25.73;;
7485;SDS011;3784;54.098;9.998;2023-04-15T02:54:20;94.13;;;29.60;;
7485;SDS011;3784;54.098;9.998;2023-04-15T02:57:08;95.70;;;30.63;;
7485;SDS011;3784;54.098;9.998;2023-04-15T02:59:43;97.50;;;29.50;;
7485;SDS011;3784;54.098;9.998;2023-04-15T03:02:16;95.70;;;31.23;;
7485;SDS011;3784;54.098;9.998;2023-04-15T03:04:46;98.57;;;32.53;;
7485;SDS011;3784;54.098;9.998;2023-04-15T03:07:33;101.20;;;29.13;;
7485;SDS011;3784;54.098;9.998;2023-04-15T03:10:16;95.30;;;29.40;;
7485;SDS011;3784;54.098;9.998;2023-04-15T03:12:45;92.77;;;29.13;;
7485;SDS011;3784;54.098;9.998;2023-04-15T03:15:21;104.47;;;31.63;;
7485;SDS011;3784;54.098;9.998;2023-04-15T03:17:58;139.63;;;36.83;;
7485;SDS011;3784;54.098;9.998;2023-04-15T03:20:32;131.40;;;36.80;;
7485;SDS011;3784;54.098;9.998;2023-04-15T03:23:10;102.37;;;33.37;;
7485;SDS011;3784;54.098;9.998;2023-04-15T03:25:43;100.17;;;34.47;;
7485;SDS011;3784;54.098;9.998;2023-04-15T03:28:14;89.43;;;30.80;;
7485;SDS011;3784;54.098;9.998;2023-04-15T03:30:57;119.10;;;38.67;;
7485;SDS011;3784;54.098;9.998;2023-04-15T03:33:34;104.67;;;36.37;;
7485;SDS011;3784;54.098;9.998;2023-04-15T03:36:07;97.63;;;34.33;;
7485;SDS011;3784;54.098;9.998;2023-04-15T03:38:39;73.23;;;27.60;;
7485;SDS011;3784;54.098;9.998;2023-04-15T03:41:11;89.73;;;32.97;;
7485;SDS011;3784;54.098;9.998;2023-04-15T03:43:41;90.07;;;33.67;;
7485;SDS011;3784;54.098;9.998;2023-04-15T03:46:15;121.37;;;38.67;;
7485;SDS011;3784;54.098;9.998;2023-04-15T03:48:52;93.77;;;32.17;;
7485;SDS011;3784;54.098;9.998;2023-04-15T03:51:21;88.80;;;33.07;;
7485;SDS011;3784;54.098;9.998;2023-04-15T03:53:50;90.67;;;32.83;;
7485;SDS011;3784;54.098;9.998;2023-04-15T03:56:23;96.57;;;33.80;;
7485;SDS011;3784;54.098;9.998;2023-04-15T03:58:54;76.47;;;27.87;;
7485;SDS011;3784;54.098;9.998;2023-04-15T04:01:37;96.13;;;32.50;;
7485;SDS011;3784;54.098;9.998;2023-04-15T04:04:07;104.13;;;35.90;;
7485;SDS011;3784;54.098;9.998;2023-04-15T04:06:38;97.67;;;33.30;;
7485;SDS011;3784;54.098;9.998;2023-04-15T04:09:10;106.10;;;35.63;;
7485;SDS011;3784;54.098;9.998;2023-04-15T04:11:50;102.17;;;35.30;;
7485;SDS011;3784;54.098;9.998;2023-04-15T04:14:19;119.30;;;38.80;;
7485;SDS011;3784;54.098;9.998;2023-04-15T04:16:56;95.37;;;32.83;;
7485;SDS011;3784;54.098;9.998;2023-04-15T04:19:26;83.57;;;30.40;;
7485;SDS011;3784;54.098;9.998;2023-04-15T04:22:00;84.07;;;32.80;;
7485;SDS011;3784;54.098;9.998;2023-04-15T04:24:30;82.10;;;31.53;;
7485;SDS011;3784;54.098;9.998;2023-04-15T04:26:58;92.53;;;36.43;;
7485;SDS011;3784;54.098;9.998;2023-04-15T04:29:34;115.20;;;38.57;;
7485;SDS011;3784;54.098;9.998;2023-04-15T04:32:22;111.87;;;37.90;;
7485;SDS011;3784;54.098;9.998;2023-04-15T04:34:55;90.53;;;35.33;;
7485;SDS011;3784;54.098;9.998;2023-04-15T04:37:25;131.70;;;41.50;;
7485;SDS011;3784;54.098;9.998;2023-04-15T04:39:52;125.43;;;39.37;;
7485;SDS011;3784;54.098;9.998;2023-04-15T04:42:22;135.37;;;41.73;;
7485;SDS011;3784;54.098;9.998;2023-04-15T04:44:51;115.17;;;42.53;;
7485;SDS011;3784;54.098;9.998;2023-04-15T04:47:18;99.00;;;37.17;;
7485;SDS011;3784;54.098;9.998;2023-04-15T04:49:47;110.53;;;39.37;;
7485;SDS011;3784;54.098;9.998;2023-04-15T04:52:16;118.80;;;43.77;;
7485;SDS011;3784;54.098;9.998;2023-04-15T04:54:44;103.10;;;36.70;;
7485;SDS011;3784;54.098;9.998;2023-04-15T04:57:11;129.13;;;43.70;;
7485;SDS011;3784;54.098;9.998;2023-04-15T04:59:39;110.00;;;38.27;;
7485;SDS011;3784;54.098;9.998;2023-04-15T05:02:06;134.43;;;42.70;;
7485;SDS011;3784;54.098;9.998;2023-04-15T05:04:35;98.90;;;40.03;;
7485;SDS011;3784;54.098;9.998;2023-04-15T05:07:02;130.77;;;46.13;;
7485;SDS011;3784;54.098;9.998;2023-04-15T05:09:28;156.37;;;49.60;;
7485;SDS011;3784;54.098;9.998;2023-04-15T05:11:57;129.87;;;45.03;;
7485;SDS011;3784;54.098;9.998;2023-04-15T05:14:24;146.60;;;48.20;;
7485;SDS011;3784;54.098;9.998;2023-04-15T05:16:51;121.67;;;45.10;;
7485;SDS011;3784;54.098;9.998;2023-04-15T05:19:17;141.80;;;47.33;;
7485;SDS011;3784;54.098;9.998;2023-04-15T05:21:44;144.03;;;50.30;;
7485;SDS011;3784;54.098;9.998;2023-04-15T05:24:12;147.27;;;51.30;;
7485;SDS011;3784;54.098;9.998;2023-04-15T05:26:39;120.83;;;50.23;;
7485;SDS011;3784;54.098;9.998;2023-04-15T05:29:07;115.47;;;45.93;;
7485;SDS011;3784;54.098;9.998;2023-04-15T05:31:33;125.80;;;51.83;;
7485;SDS011;3784;54.098;9.998;2023-04-15T05:34:00;129.20;;;51.57;;
7485;SDS011;3784;54.098;9.998;2023-04-15T05:36:26;117.30;;;48.47;;
7485;SDS011;3784;54.098;9.998;2023-04-15T05:38:53;121.70;;;50.13;;
7485;SDS011;3784;54.098;9.998;2023-04-15T05:41:20;102.60;;;45.57;;
7485;SDS011;3784;54.098;9.998;2023-04-15T05:43:47;103.53;;;48.27;;
7485;SDS011;3784;54.098;9.998;2023-04-15T05:46:14;96.53;;;44.80;;
7485;SDS011;3784;54.098;9.998;2023-04-15T05:48:41;95.67;;;47.27;;
7485;SDS011;3784;54.098;9.998;2023-04-15T05:51:07;105.93;;;49.73;;
7485;SDS011;3784;54.098;9.998;2023-04-15T05:53:34;101.93;;;47.30;;
7485;SDS011;3784;54.098;9.998;2023-04-15T05:56:01;81.53;;;42.87;;
7485;SDS011;3784;54.098;9.998;2023-04-15T05:58:27;91.23;;;43.23;;
7485;SDS011;3784;54.098;9.998;2023-04-15T06:00:54;96.23;;;48.60;;
7485;SDS011;3784;54.098;9.998;2023-04-15T06:03:21;111.40;;;50.03;;
7485;SDS011;3784;54.098;9.998;2023-04-15T06:05:49;95.53;;;43.33;;
7485;SDS011;3784;54.098;9.998;2023-04-15T06:08:16;109.33;;;49.60;;
7485;SDS011;3784;54.098;9.998;2023-04-15T06:10:43;92.57;;;45.43;;
7485;SDS011;3784;54.098;9.998;2023-04-15T06:13:09;111.47;;;48.97;;
7485;SDS011;3784;54.098;9.998;2023-04-15T06:15:36;125.83;;;55.20;;
7485;SDS011;3784;54.098;9.998;2023-04-15T06:18:02;111.17;;;52.57;;
7485;SDS011;3784;54.098;9.998;2023-04-15T06:20:29;112.50;;;50.23;;
7485;SDS011;3784;54.098;9.998;2023-04-15T06:22:56;105.40;;;49.97;;
7485;SDS011;3784;54.098;9.998;2023-04-15T06:25:22;118.53;;;54.47;;
7485;SDS011;3784;54.098;9.998;2023-04-15T06:27:49;96.93;;;48.47;;
7485;SDS011;3784;54.098;9.998;2023-04-15T06:30:15;92.77;;;47.00;;
7485;SDS011;3784;54.098;9.998;2023-04-15T06:32:42;70.93;;;39.13;;
7485;SDS011;3784;54.098;9.998;2023-04-15T06:35:09;84.33;;;46.20;;
7485;SDS011;3784;54.098;9.998;2023-04-15T06:37:35;85.33;;;46.10;;
7485;SDS011;3784;54.098;9.998;2023-04-15T06:40:02;75.07;;;42.17;;
7485;SDS011;3784;54.098;9.998;2023-04-15T06:42:30;76.07;;;41.47;;
7485;SDS011;3784;54.098;9.998;2023-04-15T06:44:57;69.50;;;42.17;;
7485;SDS011;3784;54.098;9.998;2023-04-15T06:47:24;82.87;;;47.50;;
7485;SDS011;3784;54.098;9.998;2023-04-15T06:49:50;67.27;;;42.53;;
7485;SDS011;3784;54.098;9.998;2023-04-15T06:52:17;66.17;;;42.53;;
7485;SDS011;3784;54.098;9.998;2023-04-15T06:54:43;74.80;;;46.90;;
7485;SDS011;3784;54.098;9.998;2023-04-15T06:57:10;68.40;;;43.80;;
7485;SDS011;3784;54.098;9.998;2023-04-15T06:59:36;80.87;;;49.43;;
7485;SDS011;3784;54.098;9.998;2023-04-15T07:02:03;62.53;;;42.43;;
7485;SDS011;3784;54.098;9.998;2023-04-15T07:04:30;59.53;;;39.90;;
7485;SDS011;3784;54.098;9.998;2023-04-15T07:06:56;62.60;;;39.60;;
7485;SDS011;3784;54.098;9.998;2023-04-15T07:09:23;58.80;;;40.77;;
7485;SDS011;3784;54.098;9.998;2023-04-15T07:11:50;53.83;;;35.67;;
7485;SDS011;3784;54.098;9.998;2023-04-15T07:14:16;61.93;;;40.60;;
7485;SDS011;3784;54.098;9.998;2023-04-15T07:16:43;65.33;;;43.60;;
7485;SDS011;3784;54.098;9.998;2023-04-15T07:19:10;59.93;;;38.57;;
7485;SDS011;3784;54.098;9.998;2023-04-15T07:21:37;60.70;;;37.97;;
7485;SDS011;3784;54.098;9.998;2023-04-15T07:24:06;60.13;;;38.27;;
7485;SDS011;3784;54.098;9.998;2023-04-15T07:26:34;62.30;;;38.63;;
7485;SDS011;3784;54.098;9.998;2023-04-15T07:29:00;56.87;;;38.97;;
7485;SDS011;3784;54.098;9.998;2023-04-15T07:31:27;56.17;;;38.77;;
7485;SDS011;3784;54.098;9.998;2023-04-15T07:33:54;48.90;;;33.97;;
7485;SDS011;3784;54.098;9.998;2023-04-15T07:36:20;60.87;;;39.60;;
7485;SDS011;3784;54.098;9.998;2023-04-15T07:38:47;53.43;;;34.83;;
7485;SDS011;3784;54.098;9.998;2023-04-15T07:41:14;51.23;;;36.63;;
7485;SDS011;3784;54.098;9.998;2023-04-15T07:43:41;52.30;;;36.30;;
7485;SDS011;3784;54.098;9.998;2023-04-15T07:46:08;45.67;;;34.87;;
7485;SDS011;3784;54.098;9.998;2023-04-15T07:48:35;47.40;;;36.93;;
7485;SDS011;3784;54.098;9.998;2023-04-15T07:51:02;46.70;;;34.93;;
7485;SDS011;3784;54.098;9.998;2023-04-15T07:53:29;46.13;;;35.83;;
7485;SDS011;3784;54.098;9.998;2023-04-15T07:55:56;50.73;;;37.07;;
7485;SDS011;3784;54.098;9.998;2023-04-15T07:58:23;47.03;;;35.10;;
7485;SDS011;3784;54.098;9.998;2023-04-15T08:00:50;47.33;;;35.77;;
7485;SDS011;3784;54.098;9.998;2023-04-15T08:03:16;45.07;;;34.13;;
7485;SDS011;3784;54.098;9.998;2023-04-15T08:06:03;46.67;;;36.03;;
7485;SDS011;3784;54.098;9.998;2023-04-15T08:08:30;48.57;;;34.20;;
7485;SDS011;3784;54.098;9.998;2023-04-15T08:10:57;43.37;;;33.73;;
7485;SDS011;3784;54.098;9.998;2023-04-15T08:13:24;47.33;;;35.83;;
7485;SDS011;3784;54.098;9.998;2023-04-15T08:15:52;42.47;;;33.17;;
7485;SDS011;3784;54.098;9.998;2023-04-15T08:18:45;43.40;;;33.07;;
7485;SDS011;3784;54.098;9.998;2023-04-15T08:21:12;46.40;;;34.77;;
7485;SDS011;3784;54.098;9.998;2023-04-15T08:23:39;49.30;;;38.70;;
7485;SDS011;3784;54.098;9.998;2023-04-15T08:26:13;40.83;;;33.37;;
7485;SDS011;3784;54.098;9.998;2023-04-15T08:28:39;40.47;;;33.93;;
7485;SDS011;3784;54.098;9.998;2023-04-15T08:31:06;40.13;;;32.80;;
7485;SDS011;3784;54.098;9.998;2023-04-15T08:33:34;38.30;;;31.43;;
7485;SDS011;3784;54.098;9.998;2023-04-15T08:36:00;39.47;;;29.63;;
7485;SDS011;3784;54.098;9.998;2023-04-15T08:38:27;37.10;;;29.27;;
7485;SDS011;3784;54.098;9.998;2023-04-15T08:40:53;38.73;;;30.90;;
7485;SDS011;3784;54.098;9.998;2023-04-15T08:43:22;32.90;;;27.97;;
7485;SDS011;3784;54.098;9.998;2023-04-15T08:45:56;33.17;;;29.17;;
7485;SDS011;3784;54.098;9.998;2023-04-15T08:48:25;36.63;;;29.93;;
7485;SDS011;3784;54.098;9.998;2023-04-15T08:50:54;37.20;;;31.87;;
7485;SDS011;3784;54.098;9.998;2023-04-15T08:53:20;37.57;;;30.90;;
7485;SDS011;3784;54.098;9.998;2023-04-15T08:55:49;35.10;;;27.70;;
7485;SDS011;3784;54.098;9.998;2023-04-15T08:58:18;33.63;;;27.70;;
7485;SDS011;3784;54.098;9.998;2023-04-15T09:00:45;33.97;;;26.97;;
7485;SDS011;3784;54.098;9.998;2023-04-15T09:03:14;33.30;;;29.10;;
7485;SDS011;3784;54.098;9.998;2023-04-15T09:05:49;32.07;;;28.63;;
7485;SDS011;3784;54.098;9.998;2023-04-15T09:08:18;32.63;;;27.43;;
7485;SDS011;3784;54.098;9.998;2023-04-15T09:10:45;31.93;;;27.03;;
7485;SDS011;3784;54.098;9.998;2023-04-15T09:13:11;33.70;;;27.50;;
7485;SDS011;3784;54.098;9.998;2023-04-15T09:15:38;30.20;;;26.63;;
7485;SDS011;3784;54.098;9.998;2023-04-15T09:18:05;29.77;;;26.67;;
7485;SDS011;3784;54.098;9.998;2023-04-15T09:20:41;33.80;;;26.43;;
7485;SDS011;3784;54.098;9.998;2023-04-15T09:23:14;30.40;;;26.40;;
7485;SDS011;3784;54.098;9.998;2023-04-15T09:25:42;28.43;;;25.47;;
7485;SDS011;3784;54.098;9.998;2023-04-15T09:28:09;28.27;;;25.30;;
7485;SDS011;3784;54.098;9.998;2023-04-15T09:30:36;28.93;;;25.80;;
7485;SDS011;3784;54.098;9.998;2023-04-15T09:33:03;26.67;;;24.07;;
7485;SDS011;3784;54.098;9.998;2023-04-15T09:35:33;27.70;;;24.70;;
7485;SDS011;3784;54.098;9.998;2023-04-15T09:38:04;26.70;;;23.77;;
7485;SDS011;3784;54.098;9.998;2023-04-15T09:43:05;28.63;;;24.23;;
7485;SDS011;3784;54.098;9.998;2023-04-15T09:45:33;23.63;;;21.23;;
7485;SDS011;3784;54.098;9.998;2023-04-15T09:48:14;24.83;;;22.30;;
7485;SDS011;3784;54.098;9.998;2023-04-15T09:50:52;25.37;;;22.73;;
7485;SDS011;3784;54.098;9.998;2023-04-15T09:53:20;23.93;;;21.63;;
7485;SDS011;3784;54.098;9.998;2023-04-15T09:55:54;25.57;;;21.43;;
7485;SDS011;3784;54.098;9.998;2023-04-15T09:58:26;23.97;;;21.23;;
7485;SDS011;3784;54.098;9.998;2023-04-15T10:00:56;22.40;;;20.07;;
7485;SDS011;3784;54.098;9.998;2023-04-15T10:03:25;23.13;;;20.80;;
7485;SDS011;3784;54.098;9.998;2023-04-15T10:05:53;23.17;;;20.70;;
7485;SDS011;3784;54.098;9.998;2023-04-15T10:08:22;21.37;;;19.23;;
7485;SDS011;3784;54.098;9.998;2023-04-15T10:10:50;21.43;;;19.13;;
7485;SDS011;3784;54.098;9.998;2023-04-15T10:13:18;21.00;;;18.83;;
7485;SDS011;3784;54.098;9.998;2023-04-15T10:15:49;21.27;;;18.97;;
7485;SDS011;3784;54.098;9.998;2023-04-15T10:18:18;22.33;;;20.03;;
7485;SDS011;3784;54.098;9.998;2023-04-15T10:20:47;21.27;;;19.03;;
7485;SDS011;3784;54.098;9.998;2023-04-15T10:23:14;23.00;;;18.87;;
7485;SDS011;3784;54.098;9.998;2023-04-15T10:25:40;21.33;;;19.10;;
7485;SDS011;3784;54.098;9.998;2023-04-15T10:28:07;19.33;;;17.43;;
7485;SDS011;3784;54.098;9.998;2023-04-15T10:30:34;20.90;;;17.83;;
7485;SDS011;3784;54.098;9.998;2023-04-15T10:33:02;19.07;;;17.27;;
7485;SDS011;3784;54.098;9.998;2023-04-15T10:35:30;18.87;;;16.97;;
7485;SDS011;3784;54.098;9.998;2023-04-15T10:37:57;17.77;;;16.17;;
7485;SDS011;3784;54.098;9.998;2023-04-15T10:40:25;16.27;;;14.57;;
7485;SDS011;3784;54.098;9.998;2023-04-15T10:42:54;17.10;;;15.33;;
7485;SDS011;3784;54.098;9.998;2023-04-15T10:45:21;16.83;;;15.30;;
7485;SDS011;3784;54.098;9.998;2023-04-15T10:47:55;15.83;;;14.23;;
7485;SDS011;3784;54.098;9.998;2023-04-15T10:50:26;16.33;;;14.63;;
7485;SDS011;3784;54.098;9.998;2023-04-15T10:52:55;15.90;;;14.30;;
7485;SDS011;3784;54.098;9.998;2023-04-15T10:55:23;14.27;;;12.80;;
7485;SDS011;3784;54.098;9.998;2023-04-15T10:57:54;14.20;;;12.83;;
7485;SDS011;3784;54.098;9.998;2023-04-15T11:00:24;13.37;;;12.17;;
7485;SDS011;3784;54.098;9.998;2023-04-15T11:02:53;14.17;;;12.87;;
7485;SDS011;3784;54.098;9.998;2023-04-15T11:05:22;14.43;;;12.93;;
7485;SDS011;3784;54.098;9.998;2023-04-15T11:08:09;13.47;;;12.27;;
7485;SDS011;3784;54.098;9.998;2023-04-15T11:13:03;14.30;;;12.93;;
7485;SDS011;3784;54.098;9.998;2023-04-15T11:15:32;14.33;;;12.93;;
7485;SDS011;3784;54.098;9.998;2023-04-15T11:20:25;13.27;;;12.07;;
7485;SDS011;3784;54.098;9.998;2023-04-15T11:22:52;14.00;;;12.70;;
7485;SDS011;3784;54.098;9.998;2023-04-15T11:25:40;14.43;;;13.03;;
7485;SDS011;3784;54.098;9.998;2023-04-15T11:28:09;14.83;;;13.33;;
7485;SDS011;3784;54.098;9.998;2023-04-15T11:30:36;13.43;;;12.17;;
7485;SDS011;3784;54.098;9.998;2023-04-15T11:33:08;14.27;;;12.87;;
7485;SDS011;3784;54.098;9.998;2023-04-15T11:35:35;13.73;;;12.53;;
7485;SDS011;3784;54.098;9.998;2023-04-15T11:38:05;13.60;;;12.50;;
7485;SDS011;3784;54.098;9.998;2023-04-15T11:40:35;13.33;;;12.13;;
7485;SDS011;3784;54.098;9.998;2023-04-15T11:43:06;13.63;;;12.23;;
7485;SDS011;3784;54.098;9.998;2023-04-15T11:45:36;14.70;;;13.20;;
7485;SDS011;3784;54.098;9.998;2023-04-15T11:48:05;14.47;;;13.07;;
7485;SDS011;3784;54.098;9.998;2023-04-15T11:50:35;13.80;;;12.50;;
7485;SDS011;3784;54.098;9.998;2023-04-15T11:53:03;15.00;;;13.60;;
7485;SDS011;3784;54.098;9.998;2023-04-15T11:58:27;12.63;;;11.43;;
7485;SDS011;3784;54.098;9.998;2023-04-15T12:00:56;12.93;;;11.73;;
7485;SDS011;3784;54.098;9.998;2023-04-15T12:03:24;13.17;;;11.87;;
7485;SDS011;3784;54.098;9.998;2023-04-15T12:06:12;12.87;;;11.60;;
7485;SDS011;3784;54.098;9.998;2023-04-15T12:11:35;13.33;;;12.13;;
7485;SDS011;3784;54.098;9.998;2023-04-15T12:14:10;12.70;;;11.57;;
7485;SDS011;3784;54.098;9.998;2023-04-15T12:16:57;12.67;;;11.57;;
7485;SDS011;3784;54.098;9.998;2023-04-15T12:19:27;12.60;;;11.37;;
7485;SDS011;3784;54.098;9.998;2023-04-15T12:22:01;12.60;;;11.40;;
7485;SDS011;3784;54.098;9.998;2023-04-15T12:24:33;13.10;;;11.77;;
7485;SDS011;3784;54.098;9.998;2023-04-15T12:27:04;11.67;;;10.47;;
7485;SDS011;3784;54.098;9.998;2023-04-15T12:29:32;12.80;;;11.43;;
7485;SDS011;3784;54.098;9.998;2023-04-15T12:32:09;11.60;;;10.50;;
7485;SDS011;3784;54.098;9.998;2023-04-15T12:34:42;11.17;;;10.10;;
7485;SDS011;3784;54.098;9.998;2023-04-15T12:37:11;12.70;;;11.57;;
7485;SDS011;3784;54.098;9.998;2023-04-15T12:39:40;11.50;;;10.50;;
7485;SDS011;3784;54.098;9.998;2023-04-15T12:42:08;14.07;;;12.67;;
7485;SDS011;3784;54.098;9.998;2023-04-15T12:44:35;14.77;;;13.27;;
7485;SDS011;3784;54.098;9.998;2023-04-15T12:47:02;15.17;;;12.90;;
7485;SDS011;3784;54.098;9.998;2023-04-15T12:49:29;15.50;;;13.63;;
7485;SDS011;3784;54.098;9.998;2023-04-15T12:51:57;11.83;;;10.73;;
7485;SDS011;3784;54.098;9.998;2023-04-15T12:54:27;12.50;;;11.40;;
7485;SDS011;3784;54.098;9.998;2023-04-15T12:56:55;12.97;;;11.73;;
7485;SDS011;3784;54.098;9.998;2023-04-15T12:59:22;13.13;;;11.73;;
7485;SDS011;3784;54.098;9.998;2023-04-15T13:01:49;13.40;;;12.30;;
7485;SDS011;3784;54.098;9.998;2023-04-15T13:04:17;12.87;;;11.67;;
7485;SDS011;3784;54.098;9.998;2023-04-15T13:06:45;12.20;;;11.10;;
7485;SDS011;3784;54.098;9.998;2023-04-15T13:09:11;12.50;;;11.27;;
7485;SDS011;3784;54.098;9.998;2023-04-15T13:11:38;12.47;;;11.37;;
7485;SDS011;3784;54.098;9.998;2023-04-15T13:14:06;12.83;;;11.63;;
7485;SDS011;3784;54.098;9.998;2023-04-15T13:16:34;13.70;;;12.43;;
7485;SDS011;3784;54.098;9.998;2023-04-15T13:19:01;14.87;;;13.57;;
7485;SDS011;3784;54.098;9.998;2023-04-15T13:21:29;13.83;;;12.60;;
7485;SDS011;3784;54.098;9.998;2023-04-15T13:23:57;13.37;;;11.40;;
7485;SDS011;3784;54.098;9.998;2023-04-15T13:26:23;13.43;;;12.23;;
7485;SDS011;3784;54.098;9.998;2023-04-15T13:28:50;14.43;;;13.13;;
7485;SDS011;3784;54.098;9.998;2023-04-15T13:31:16;13.03;;;11.83;;
7485;SDS011;3784;54.098;9.998;2023-04-15T13:33:43;12.03;;;10.93;;
7485;SDS011;3784;54.098;9.998;2023-04-15T13:36:09;13.53;;;12.27;;
7485;SDS011;3784;54.098;9.998;2023-04-15T13:38:36;12.83;;;11.73;;
7485;SDS011;3784;54.098;9.998;2023-04-15T13:41:03;14.43;;;13.00;;
7485;SDS011;3784;54.098;9.998;2023-04-15T13:43:29;13.67;;;12.47;;
7485;SDS011;3784;54.098;9.998;2023-04-15T13:45:58;14.43;;;13.17;;
7485;SDS011;3784;54.098;9.998;2023-04-15T13:48:25;15.50;;;14.00;;
7485;SDS011;3784;54.098;9.998;2023-04-15T13:50:52;15.57;;;14.17;;
7485;SDS011;3784;54.098;9.998;2023-04-15T13:53:18;16.27;;;14.83;;
7485;SDS011;3784;54.098;9.998;2023-04-15T13:55:44;15.40;;;14.00;;
7485;SDS011;3784;54.098;9.998;2023-04-15T13:58:11;15.00;;;13.70;;
7485;SDS011;3784;54.098;9.998;2023-04-15T14:00:38;14.50;;;13.10;;
7485;SDS011;3784;54.098;9.998;2023-04-15T14:03:04;14.97;;;13.47;;
7485;SDS011;3784;54.098;9.998;2023-04-15T14:05:31;14.63;;;13.33;;
7485;SDS011;3784;54.098;9.998;2023-04-15T14:07:58;14.23;;;12.93;;
7485;SDS011;3784;54.098;9.998;2023-04-15T14:10:25;14.77;;;13.40;;
7485;SDS011;3784;54.098;9.998;2023-04-15T14:12:51;16.43;;;14.77;;
7485;SDS011;3784;54.098;9.998;2023-04-15T14:15:18;16.67;;;15.17;;
7485;SDS011;3784;54.098;9.998;2023-04-15T14:17:44;16.60;;;15.07;;
7485;SDS011;3784;54.098;9.998;2023-04-15T14:20:11;15.97;;;14.43;;
7485;SDS011;3784;54.098;9.998;2023-04-15T14:22:41;14.77;;;13.37;;
7485;SDS011;3784;54.098;9.998;2023-04-15T14:25:08;13.37;;;12.07;;
7485;SDS011;3784;54.098;9.998;2023-04-15T14:27:38;13.03;;;11.77;;
7485;SDS011;3784;54.098;9.998;2023-04-15T14:30:06;13.70;;;12.47;;
7485;SDS011;3784;54.098;9.998;2023-04-15T14:32:33;13.27;;;12.17;;
7485;SDS011;3784;54.098;9.998;2023-04-15T14:34:59;14.27;;;12.87;;
7485;SDS011;3784;54.098;9.998;2023-04-15T14:37:26;16.63;;;14.97;;
7485;SDS011;3784;54.098;9.998;2023-04-15T14:39:52;16.27;;;14.77;;
7485;SDS011;3784;54.098;9.998;2023-04-15T14:42:20;17.83;;;16.23;;
7485;SDS011;3784;54.098;9.998;2023-04-15T14:44:46;16.87;;;15.30;;
7485;SDS011;3784;54.098;9.998;2023-04-15T14:47:13;16.50;;;14.87;;
7485;SDS011;3784;54.098;9.998;2023-04-15T14:49:39;16.40;;;14.90;;
7485;SDS011;3784;54.098;9.998;2023-04-15T14:52:06;16.67;;;15.17;;
7485;SDS011;3784;54.098;9.998;2023-04-15T14:54:32;17.20;;;15.60;;
7485;SDS011;3784;54.098;9.998;2023-04-15T14:56:59;16.50;;;15.00;;
7485;SDS011;3784;54.098;9.998;2023-04-15T14:59:27;16.73;;;15.13;;
7485;SDS011;3784;54.098;9.998;2023-04-15T15:01:53;17.07;;;15.23;;
7485;SDS011;3784;54.098;9.998;2023-04-15T15:04:22;16.33;;;14.63;;
7485;SDS011;3784;54.098;9.998;2023-04-15T15:06:48;16.23;;;14.73;;
7485;SDS011;3784;54.098;9.998;2023-04-15T15:09:16;15.80;;;14.10;;
7485;SDS011;3784;54.098;9.998;2023-04-15T15:11:44;15.87;;;14.47;;
7485;SDS011;3784;54.098;9.998;2023-04-15T15:14:11;16.03;;;14.47;;